createdAt,value
2017-01-15T00:00:29.773Z,1012.35
2017-01-15T00:01:52.613Z,1012.44
2017-01-15T00:03:14.685Z,1012.53
2017-01-15T00:04:36.792Z,1012.61
2017-01-15T00:05:59.274Z,1012.56
2017-01-15T00:07:21.767Z,1012.57
2017-01-15T00:08:43.944Z,1012.56
2017-01-15T00:10:06.448Z,1012.53
2017-01-15T00:11:28.903Z,1012.52
2017-01-15T00:12:50.967Z,1012.53
2017-01-15T00:14:13.074Z,1012.54
2017-01-15T00:15:35.181Z,1012.49
2017-01-15T00:16:57.645Z,1012.44
2017-01-15T00:18:20.493Z,1012.36
2017-01-15T00:19:42.993Z,1012.36
2017-01-15T00:21:05.157Z,1012.42
2017-01-15T00:22:27.621Z,1012.46
2017-01-15T00:23:49.711Z,1012.47
2017-01-15T00:25:12.593Z,1012.46
2017-01-15T00:26:35.032Z,1012.5
2017-01-15T00:27:56.802Z,1012.5
2017-01-15T00:29:19.349Z,1012.49
2017-01-15T00:30:41.389Z,1012.52
2017-01-15T00:32:03.096Z,1012.56
2017-01-15T00:33:25.963Z,1012.54
2017-01-15T00:34:47.215Z,1012.54
2017-01-15T00:36:09.733Z,1012.62
2017-01-15T00:37:31.413Z,1012.6
2017-01-15T00:38:53.578Z,1012.57
2017-01-15T00:40:16.136Z,1012.6
2017-01-15T00:41:38.632Z,1012.63
2017-01-15T00:43:00.283Z,1012.61
2017-01-15T00:44:22.736Z,1012.57
2017-01-15T00:45:45.222Z,1012.64
2017-01-15T00:47:06.888Z,1012.63
2017-01-15T00:48:29.371Z,1012.66
2017-01-15T00:49:51.830Z,1012.66
2017-01-15T00:51:13.479Z,1012.72
2017-01-15T00:52:35.538Z,1012.71
2017-01-15T00:53:57.616Z,1012.67
2017-01-15T00:55:19.301Z,1012.63
2017-01-15T00:56:42.109Z,1012.61
2017-01-15T00:58:05.065Z,1012.66
2017-01-15T00:59:27.219Z,1012.65
2017-01-15T01:00:48.487Z,1012.63
2017-01-15T01:02:10.957Z,1012.69
2017-01-15T01:03:33.422Z,1012.66
2017-01-15T01:04:56.350Z,1012.7
2017-01-15T01:06:18.824Z,1012.69
2017-01-15T01:07:41.279Z,1012.76
2017-01-15T01:09:03.721Z,1012.77
2017-01-15T01:10:25.372Z,1012.8
2017-01-15T01:11:47.430Z,1012.9
2017-01-15T01:13:09.496Z,1012.86
2017-01-15T01:14:31.715Z,1012.83
2017-01-15T01:15:53.764Z,1012.9
2017-01-15T01:17:16.660Z,1012.93
2017-01-15T01:18:37.915Z,1013.02
2017-01-15T01:20:00.476Z,1013.02
2017-01-15T01:21:22.527Z,1013.05
2017-01-15T01:22:44.562Z,1013.11
2017-01-15T01:24:07.058Z,1013.16
2017-01-15T01:25:29.311Z,1013.11
2017-01-15T01:26:50.960Z,1013.15
2017-01-15T01:28:13.097Z,1013.16
2017-01-15T01:29:35.587Z,1013.21
2017-01-15T01:30:57.790Z,1013.22
2017-01-15T01:32:19.538Z,1013.28
2017-01-15T01:33:42.379Z,1013.33
2017-01-15T01:35:04.826Z,1013.31
2017-01-15T01:36:27.660Z,1013.28
2017-01-15T01:37:50.521Z,1013.28
2017-01-15T01:39:11.907Z,1013.28
2017-01-15T01:40:34.370Z,1013.26
2017-01-15T01:41:56.508Z,1013.37
2017-01-15T01:43:18.000Z,1013.35
2017-01-15T01:44:39.731Z,1013.45
2017-01-15T01:46:02.222Z,1013.45
2017-01-15T01:47:24.667Z,1013.48
2017-01-15T01:48:45.930Z,1013.45
2017-01-15T01:50:08.369Z,1013.45
2017-01-15T01:51:30.813Z,1013.51
2017-01-15T01:52:52.866Z,1013.4
2017-01-15T01:54:14.909Z,1013.43
2017-01-15T01:55:36.571Z,1013.47
2017-01-15T01:56:59.418Z,1013.52
2017-01-15T01:58:22.242Z,1013.55
2017-01-15T01:59:44.275Z,1013.56
2017-01-15T02:01:06.428Z,1013.56
2017-01-15T02:02:28.137Z,1013.6
2017-01-15T02:03:50.988Z,1013.62
2017-01-15T02:05:12.217Z,1013.6
2017-01-15T02:06:35.162Z,1013.6
2017-01-15T02:07:57.251Z,1013.58
2017-01-15T02:09:19.320Z,1013.58
2017-01-15T02:10:41.860Z,1013.6
2017-01-15T02:12:04.371Z,1013.59
2017-01-15T02:13:26.413Z,1013.58
2017-01-15T02:14:49.324Z,1013.62
2017-01-15T02:16:11.386Z,1013.63
2017-01-15T02:17:33.421Z,1013.57
2017-01-15T02:18:55.866Z,1013.63
2017-01-15T02:20:17.900Z,1013.58
2017-01-15T02:21:40.372Z,1013.53
2017-01-15T02:23:01.627Z,1013.5
2017-01-15T02:24:23.681Z,1013.52
2017-01-15T02:25:46.230Z,1013.53
2017-01-15T02:27:08.493Z,1013.58
2017-01-15T02:28:30.262Z,1013.6
2017-01-15T02:29:52.722Z,1013.57
2017-01-15T02:31:14.376Z,1013.61
2017-01-15T02:32:36.422Z,1013.58
2017-01-15T02:33:58.871Z,1013.61
2017-01-15T02:35:20.934Z,1013.65
2017-01-15T02:36:43.792Z,1013.64
2017-01-15T02:38:05.971Z,1013.65
2017-01-15T02:39:28.406Z,1013.62
2017-01-15T02:40:50.066Z,1013.65
2017-01-15T02:42:12.573Z,1013.68
2017-01-15T02:43:34.642Z,1013.63
2017-01-15T02:44:56.313Z,1013.65
2017-01-15T02:46:17.973Z,1013.69
2017-01-15T02:47:40.029Z,1013.72
2017-01-15T02:49:01.689Z,1013.73
2017-01-15T02:50:23.393Z,1013.79
2017-01-15T02:51:45.833Z,1013.78
2017-01-15T02:53:07.075Z,1013.82
2017-01-15T02:54:29.112Z,1013.81
2017-01-15T02:55:49.972Z,1013.81
2017-01-15T02:57:11.663Z,1013.85
2017-01-15T02:58:33.719Z,1013.85
2017-01-15T02:59:56.222Z,1013.97
2017-01-15T03:01:18.036Z,1014.08
2017-01-15T03:02:40.523Z,1014.02
2017-01-15T03:04:02.314Z,1014.03
2017-01-15T03:05:24.755Z,1014.01
2017-01-15T03:06:46.801Z,1013.96
2017-01-15T03:08:09.314Z,1013.96
2017-01-15T03:09:31.387Z,1013.95
2017-01-15T03:10:53.436Z,1013.98
2017-01-15T03:12:15.585Z,1013.99
2017-01-15T03:13:37.776Z,1013.98
2017-01-15T03:15:00.311Z,1013.97
2017-01-15T03:16:21.959Z,1013.99
2017-01-15T03:17:43.757Z,1013.98
2017-01-15T03:19:06.604Z,1014.02
2017-01-15T03:20:29.077Z,1014.03
2017-01-15T03:21:51.954Z,1014.13
2017-01-15T03:23:14.175Z,1014.14
2017-01-15T03:24:36.242Z,1014.16
2017-01-15T03:25:58.676Z,1014.14
2017-01-15T03:27:20.359Z,1014.17
2017-01-15T03:28:42.029Z,1014.11
2017-01-15T03:30:04.867Z,1014.14
2017-01-15T03:31:26.632Z,1014.15
2017-01-15T03:32:48.668Z,1014.13
2017-01-15T03:34:11.596Z,1014.19
2017-01-15T03:35:33.348Z,1014.17
2017-01-15T03:36:55.005Z,1014.19
2017-01-15T03:38:17.207Z,1014.18
2017-01-15T03:39:39.668Z,1014.19
2017-01-15T03:41:02.130Z,1014.22
2017-01-15T03:42:24.598Z,1014.26
2017-01-15T03:43:46.724Z,1014.23
2017-01-15T03:45:08.364Z,1014.26
2017-01-15T03:46:31.227Z,1014.27
2017-01-15T03:47:53.327Z,1014.32
2017-01-15T03:49:14.987Z,1014.27
2017-01-15T03:50:37.036Z,1014.29
2017-01-15T03:51:58.690Z,1014.23
2017-01-15T03:53:21.162Z,1014.26
2017-01-15T03:54:43.616Z,1014.22
2017-01-15T03:56:05.658Z,1014.27
2017-01-15T03:57:27.309Z,1014.27
2017-01-15T03:58:48.238Z,1014.3
2017-01-15T04:00:10.267Z,1014.34
2017-01-15T04:01:31.931Z,1014.35
2017-01-15T04:02:53.592Z,1014.36
2017-01-15T04:04:15.452Z,1014.37
2017-01-15T04:05:37.187Z,1014.4
2017-01-15T04:06:58.876Z,1014.43
2017-01-15T04:08:20.917Z,1014.42
2017-01-15T04:09:42.615Z,1014.43
2017-01-15T04:11:04.716Z,1014.45
2017-01-15T04:12:27.231Z,1014.43
2017-01-15T04:13:49.281Z,1014.46
2017-01-15T04:15:11.118Z,1014.46
2017-01-15T04:16:33.594Z,1014.44
2017-01-15T04:17:55.279Z,1014.54
2017-01-15T04:19:16.537Z,1014.53
2017-01-15T04:20:37.526Z,1014.53
2017-01-15T04:22:00.389Z,1014.53
2017-01-15T04:23:23.297Z,1014.58
2017-01-15T04:24:44.967Z,1014.56
2017-01-15T04:26:07.478Z,1014.58
2017-01-15T04:27:30.488Z,1014.61
2017-01-15T04:28:52.945Z,1014.65
2017-01-15T04:30:14.985Z,1014.64
2017-01-15T04:31:36.719Z,1014.63
2017-01-15T04:32:59.217Z,1014.64
2017-01-15T04:34:21.756Z,1014.66
2017-01-15T04:35:43.467Z,1014.65
2017-01-15T04:37:05.526Z,1014.7
2017-01-15T04:38:27.568Z,1014.75
2017-01-15T04:39:49.792Z,1014.78
2017-01-15T04:41:11.454Z,1014.82
2017-01-15T04:42:33.203Z,1014.88
2017-01-15T04:43:55.258Z,1014.81
2017-01-15T04:45:16.526Z,1014.82
2017-01-15T04:46:39.366Z,1014.82
2017-01-15T04:48:01.826Z,1014.82
2017-01-15T04:49:23.975Z,1014.8
2017-01-15T04:50:46.027Z,1014.83
2017-01-15T04:52:08.863Z,1014.85
2017-01-15T04:53:30.615Z,1014.9
2017-01-15T04:54:52.288Z,1014.94
2017-01-15T04:56:14.815Z,1014.92
2017-01-15T04:57:37.255Z,1014.88
2017-01-15T04:58:59.343Z,1014.93
2017-01-15T05:00:21.416Z,1014.91
2017-01-15T05:01:43.072Z,1014.92
2017-01-15T05:03:05.366Z,1014.91
2017-01-15T05:04:28.333Z,1014.94
2017-01-15T05:05:49.991Z,1014.96
2017-01-15T05:07:11.660Z,1014.94
2017-01-15T05:08:33.727Z,1015.01
2017-01-15T05:09:55.827Z,1014.99
2017-01-15T05:11:18.275Z,1015.01
2017-01-15T05:12:39.913Z,1015.01
2017-01-15T05:14:01.745Z,1015.04
2017-01-15T05:15:24.225Z,1015.01
2017-01-15T05:16:45.840Z,1015.04
2017-01-15T05:18:08.256Z,1014.98
2017-01-15T05:19:30.386Z,1015.02
2017-01-15T05:20:52.041Z,1015
2017-01-15T05:22:14.112Z,1015.06
2017-01-15T05:23:35.738Z,1015.15
2017-01-15T05:24:58.198Z,1015.15
2017-01-15T05:26:20.886Z,1015.13
2017-01-15T05:27:43.316Z,1015.16
2017-01-15T05:29:05.367Z,1015.17
2017-01-15T05:30:27.461Z,1015.18
2017-01-15T05:31:49.910Z,1015.29
2017-01-15T05:33:11.992Z,1015.28
2017-01-15T05:34:33.705Z,1015.31
2017-01-15T05:35:55.384Z,1015.38
2017-01-15T05:37:18.385Z,1015.39
2017-01-15T05:38:40.425Z,1015.36
2017-01-15T05:40:02.872Z,1015.38
2017-01-15T05:41:24.524Z,1015.38
2017-01-15T05:42:46.574Z,1015.4
2017-01-15T05:44:08.279Z,1015.38
2017-01-15T05:45:29.946Z,1015.45
2017-01-15T05:46:52.004Z,1015.4
2017-01-15T05:48:14.041Z,1015.44
2017-01-15T05:49:36.083Z,1015.46
2017-01-15T05:50:57.322Z,1015.5
2017-01-15T05:52:18.573Z,1015.48
2017-01-15T05:53:40.656Z,1015.46
2017-01-15T05:55:02.333Z,1015.47
2017-01-15T05:56:24.764Z,1015.54
2017-01-15T05:57:47.257Z,1015.56
2017-01-15T05:59:08.112Z,1015.53
2017-01-15T06:00:31.138Z,1015.55
2017-01-15T06:01:52.787Z,1015.55
2017-01-15T06:03:15.340Z,1015.51
2017-01-15T06:04:37.375Z,1015.57
2017-01-15T06:05:59.502Z,1015.61
2017-01-15T06:07:21.641Z,1015.63
2017-01-15T06:08:43.293Z,1015.68
2017-01-15T06:10:05.533Z,1015.68
2017-01-15T06:11:27.594Z,1015.7
2017-01-15T06:12:50.104Z,1015.74
2017-01-15T06:14:11.766Z,1015.73
2017-01-15T06:15:32.740Z,1015.74
2017-01-15T06:16:55.643Z,1015.71
2017-01-15T06:18:17.032Z,1015.69
2017-01-15T06:20:11.374Z,1015.72
2017-01-15T06:21:33.480Z,1015.75
2017-01-15T06:22:55.531Z,1015.73
2017-01-15T06:24:16.788Z,1015.8
2017-01-15T06:25:39.818Z,1015.82
2017-01-15T06:27:02.063Z,1015.85
2017-01-15T06:28:24.522Z,1015.86
2017-01-15T06:29:45.363Z,1015.88
2017-01-15T06:31:06.626Z,1015.91
2017-01-15T06:32:28.661Z,1015.94
2017-01-15T06:33:50.733Z,1015.94
2017-01-15T06:35:12.780Z,1015.97
2017-01-15T06:36:34.825Z,1015.98
2017-01-15T06:37:57.282Z,1015.97
2017-01-15T06:39:20.115Z,1016
2017-01-15T06:40:42.992Z,1016.04
2017-01-15T06:42:04.631Z,1016
2017-01-15T06:43:26.663Z,1016.02
2017-01-15T06:44:48.712Z,1015.99
2017-01-15T06:46:10.753Z,1016.01
2017-01-15T06:47:33.204Z,1016.04
2017-01-15T06:48:55.662Z,1016.07
2017-01-15T06:50:17.722Z,1016.1
2017-01-15T06:51:40.180Z,1016.11
2017-01-15T06:53:02.243Z,1016.11
2017-01-15T06:54:23.885Z,1016.16
2017-01-15T06:55:45.548Z,1016.14
2017-01-15T06:57:07.203Z,1016.14
2017-01-15T06:58:30.052Z,1016.18
2017-01-15T06:59:52.152Z,1016.21
2017-01-15T07:01:14.602Z,1016.22
2017-01-15T07:02:36.264Z,1016.25
2017-01-15T07:03:58.312Z,1016.25
2017-01-15T07:05:19.951Z,1016.29
2017-01-15T07:06:42.204Z,1016.33
2017-01-15T07:08:05.082Z,1016.32
2017-01-15T07:09:26.928Z,1016.33
2017-01-15T07:10:49.365Z,1016.38
2017-01-15T07:12:11.490Z,1016.41
2017-01-15T07:13:34.352Z,1016.45
2017-01-15T07:14:56.438Z,1016.47
2017-01-15T07:16:18.981Z,1016.46
2017-01-15T07:17:41.459Z,1016.51
2017-01-15T07:19:02.320Z,1016.54
2017-01-15T07:20:25.158Z,1016.58
2017-01-15T07:21:47.604Z,1016.63
2017-01-15T07:23:10.215Z,1016.63
2017-01-15T07:24:32.661Z,1016.66
2017-01-15T07:25:55.098Z,1016.69
2017-01-15T07:27:18.125Z,1016.73
2017-01-15T07:28:40.581Z,1016.74
2017-01-15T07:30:03.013Z,1016.68
2017-01-15T07:31:24.267Z,1016.73
2017-01-15T07:32:46.344Z,1016.75
2017-01-15T07:34:08.825Z,1016.79
2017-01-15T07:35:30.866Z,1016.75
2017-01-15T07:36:53.421Z,1016.75
2017-01-15T07:38:15.609Z,1016.79
2017-01-15T07:39:37.419Z,1016.84
2017-01-15T07:40:59.851Z,1016.81
2017-01-15T07:42:22.026Z,1016.86
2017-01-15T07:43:44.086Z,1016.83
2017-01-15T07:45:05.764Z,1016.84
2017-01-15T07:46:27.807Z,1016.84
2017-01-15T07:47:50.287Z,1016.89
2017-01-15T07:49:12.805Z,1016.91
2017-01-15T07:50:35.375Z,1016.91
2017-01-15T07:51:57.416Z,1016.97
2017-01-15T07:53:19.568Z,1016.95
2017-01-15T07:54:42.643Z,1016.97
2017-01-15T07:56:04.685Z,1017.05
2017-01-15T07:57:27.123Z,1017.02
2017-01-15T07:58:48.792Z,1017.06
2017-01-15T08:00:10.838Z,1017.04
2017-01-15T08:01:33.274Z,1017.07
2017-01-15T08:02:54.968Z,1017.1
2017-01-15T08:04:17.532Z,1017.13
2017-01-15T08:05:40.184Z,1017.14
2017-01-15T08:07:02.229Z,1017.22
2017-01-15T08:08:25.073Z,1017.22
2017-01-15T08:09:47.114Z,1017.2
2017-01-15T08:11:09.553Z,1017.22
2017-01-15T08:12:31.622Z,1017.28
2017-01-15T08:13:53.751Z,1017.31
2017-01-15T08:15:16.872Z,1017.31
2017-01-15T08:16:39.353Z,1017.32
2017-01-15T08:18:01.419Z,1017.37
2017-01-15T08:19:24.293Z,1017.44
2017-01-15T08:20:46.745Z,1017.41
2017-01-15T08:22:08.797Z,1017.51
2017-01-15T08:23:31.302Z,1017.53
2017-01-15T08:24:54.134Z,1017.55
2017-01-15T08:26:15.892Z,1017.56
2017-01-15T08:27:38.607Z,1017.56
2017-01-15T08:29:01.068Z,1017.55
2017-01-15T08:30:23.174Z,1017.57
2017-01-15T08:31:45.706Z,1017.6
2017-01-15T08:33:07.354Z,1017.59
2017-01-15T08:34:29.460Z,1017.62
2017-01-15T08:35:52.447Z,1017.66
2017-01-15T08:37:14.501Z,1017.71
2017-01-15T08:38:36.969Z,1017.7
2017-01-15T08:39:59.882Z,1017.69
2017-01-15T08:41:22.737Z,1017.72
2017-01-15T08:42:45.471Z,1017.75
2017-01-15T08:44:07.909Z,1017.76
2017-01-15T08:45:29.172Z,1017.8
2017-01-15T08:46:51.737Z,1017.79
2017-01-15T08:48:14.601Z,1017.76
2017-01-15T08:49:37.471Z,1017.81
2017-01-15T08:50:59.580Z,1017.79
2017-01-15T08:52:22.059Z,1017.84
2017-01-15T08:53:44.157Z,1017.84
2017-01-15T08:55:07.022Z,1017.88
2017-01-15T08:56:29.491Z,1017.91
2017-01-15T08:57:52.428Z,1017.91
2017-01-15T08:59:14.621Z,1017.92
2017-01-15T09:00:36.678Z,1017.88
2017-01-15T09:01:59.146Z,1017.94
2017-01-15T09:03:21.619Z,1017.95
2017-01-15T09:04:43.799Z,1017.9
2017-01-15T09:06:04.649Z,1017.94
2017-01-15T09:07:27.320Z,1017.91
2017-01-15T09:08:49.380Z,1017.93
2017-01-15T09:10:11.530Z,1017.96
2017-01-15T09:11:34.575Z,1017.95
2017-01-15T09:12:57.091Z,1018
2017-01-15T09:14:18.349Z,1018.01
2017-01-15T09:15:40.811Z,1018.02
2017-01-15T09:17:03.429Z,1018.06
2017-01-15T09:18:25.977Z,1018.09
2017-01-15T09:19:48.831Z,1018.1
2017-01-15T09:21:11.265Z,1018.11
2017-01-15T09:22:33.366Z,1018.19
2017-01-15T09:24:27.768Z,1018.22
2017-01-15T09:25:49.964Z,1018.24
2017-01-15T09:27:12.002Z,1018.25
2017-01-15T09:28:33.657Z,1018.22
2017-01-15T09:29:56.181Z,1018.22
2017-01-15T09:31:19.049Z,1018.22
2017-01-15T09:32:42.052Z,1018.23
2017-01-15T09:34:04.619Z,1018.31
2017-01-15T09:35:26.690Z,1018.32
2017-01-15T09:36:49.349Z,1018.32
2017-01-15T09:38:11.383Z,1018.35
2017-01-15T09:39:33.872Z,1018.33
2017-01-15T09:40:56.355Z,1018.38
2017-01-15T09:42:17.712Z,1018.35
2017-01-15T09:43:40.192Z,1018.42
2017-01-15T09:45:03.089Z,1018.37
2017-01-15T09:46:25.962Z,1018.42
2017-01-15T09:47:47.634Z,1018.39
2017-01-15T09:49:10.074Z,1018.42
2017-01-15T09:50:32.543Z,1018.42
2017-01-15T09:51:54.991Z,1018.41
2017-01-15T09:53:17.050Z,1018.44
2017-01-15T09:54:39.111Z,1018.46
2017-01-15T09:56:01.622Z,1018.47
2017-01-15T09:57:23.665Z,1018.5
2017-01-15T09:58:46.251Z,1018.5
2017-01-15T10:00:07.982Z,1018.52
2017-01-15T10:01:30.230Z,1018.53
2017-01-15T10:02:51.931Z,1018.51
2017-01-15T10:04:14.812Z,1018.55
2017-01-15T10:05:36.961Z,1018.55
2017-01-15T10:06:59.473Z,1018.59
2017-01-15T10:08:21.527Z,1018.61
2017-01-15T10:09:43.364Z,1018.62
2017-01-15T10:11:06.230Z,1018.62
2017-01-15T10:12:28.293Z,1018.62
2017-01-15T10:13:50.453Z,1018.62
2017-01-15T10:15:12.504Z,1018.6
2017-01-15T10:16:35.446Z,1018.61
2017-01-15T10:17:58.052Z,1018.64
2017-01-15T10:19:20.150Z,1018.66
2017-01-15T10:20:43.014Z,1018.67
2017-01-15T10:22:04.716Z,1018.71
2017-01-15T10:23:27.176Z,1018.74
2017-01-15T10:24:50.046Z,1018.76
2017-01-15T10:26:12.934Z,1018.71
2017-01-15T10:27:35.029Z,1018.72
2017-01-15T10:28:57.986Z,1018.79
2017-01-15T10:30:20.851Z,1018.79
2017-01-15T10:31:43.342Z,1018.77
2017-01-15T10:33:06.204Z,1018.79
2017-01-15T10:34:29.076Z,1018.81
2017-01-15T10:35:51.655Z,1018.78
2017-01-15T10:37:14.113Z,1018.79
2017-01-15T10:38:36.970Z,1018.78
2017-01-15T10:39:59.823Z,1018.81
2017-01-15T10:41:22.287Z,1018.8
2017-01-15T10:42:44.946Z,1018.79
2017-01-15T10:44:07.593Z,1018.86
2017-01-15T10:45:29.709Z,1018.88
2017-01-15T10:46:52.163Z,1018.87
2017-01-15T10:48:14.271Z,1018.87
2017-01-15T10:49:36.335Z,1018.89
2017-01-15T10:50:58.845Z,1018.87
2017-01-15T10:52:21.310Z,1018.91
2017-01-15T10:53:44.336Z,1018.92
2017-01-15T10:55:06.809Z,1018.95
2017-01-15T10:56:28.474Z,1018.94
2017-01-15T10:57:50.953Z,1018.93
2017-01-15T10:59:13.035Z,1018.95
2017-01-15T11:00:35.513Z,1018.88
2017-01-15T11:01:58.016Z,1018.92
2017-01-15T11:03:20.936Z,1018.92
2017-01-15T11:04:43.044Z,1018.95
2017-01-15T11:06:05.138Z,1018.91
2017-01-15T11:07:27.703Z,1018.98
2017-01-15T11:08:49.493Z,1018.98
2017-01-15T11:10:11.570Z,1019.01
2017-01-15T11:11:34.503Z,1018.99
2017-01-15T11:12:56.564Z,1019.01
2017-01-15T11:14:19.426Z,1019.03
2017-01-15T11:15:41.525Z,1019.08
2017-01-15T11:17:03.667Z,1019.04
2017-01-15T11:18:25.433Z,1019.09
2017-01-15T11:19:48.048Z,1019.12
2017-01-15T11:21:10.214Z,1019.09
2017-01-15T11:22:32.786Z,1019.13
2017-01-15T11:23:55.632Z,1019.12
2017-01-15T11:25:17.746Z,1019.14
2017-01-15T11:26:40.200Z,1019.12
2017-01-15T11:28:02.256Z,1019.13
2017-01-15T11:29:25.285Z,1019.14
2017-01-15T11:30:47.759Z,1019.14
2017-01-15T11:32:09.896Z,1019.14
2017-01-15T11:33:32.899Z,1019.15
2017-01-15T11:34:54.671Z,1019.15
2017-01-15T11:36:16.758Z,1019.17
2017-01-15T11:37:39.446Z,1019.18
2017-01-15T11:39:01.988Z,1019.13
2017-01-15T11:40:24.900Z,1019.12
2017-01-15T11:41:47.803Z,1019.14
2017-01-15T11:43:10.332Z,1019.16
2017-01-15T11:44:32.795Z,1019.18
2017-01-15T11:45:55.685Z,1019.19
2017-01-15T11:47:17.763Z,1019.18
2017-01-15T11:48:40.725Z,1019.16
2017-01-15T11:50:03.261Z,1019.16
2017-01-15T11:51:26.182Z,1019.17
2017-01-15T11:52:48.722Z,1019.2
2017-01-15T11:54:11.646Z,1019.2
2017-01-15T11:55:33.563Z,1019.2
2017-01-15T11:56:56.042Z,1019.22
2017-01-15T11:58:17.875Z,1019.22
2017-01-15T11:59:41.026Z,1019.27
2017-01-15T12:01:04.081Z,1019.2
2017-01-15T12:02:26.578Z,1019.25
2017-01-15T12:03:49.104Z,1019.23
2017-01-15T12:05:11.969Z,1019.21
2017-01-15T12:06:34.478Z,1019.23
2017-01-15T12:07:56.574Z,1019.29
2017-01-15T12:09:18.672Z,1019.23
2017-01-15T12:10:40.771Z,1019.26
2017-01-15T12:12:02.829Z,1019.27
2017-01-15T12:13:24.879Z,1019.28
2017-01-15T12:14:47.343Z,1019.33
2017-01-15T12:16:09.476Z,1019.29
2017-01-15T12:17:31.958Z,1019.29
2017-01-15T12:18:53.718Z,1019.3
2017-01-15T12:20:15.982Z,1019.32
2017-01-15T12:21:38.434Z,1019.31
2017-01-15T12:23:00.493Z,1019.33
2017-01-15T12:24:22.678Z,1019.34
2017-01-15T12:25:45.162Z,1019.33
2017-01-15T12:27:07.624Z,1019.36
2017-01-15T12:28:30.130Z,1019.3
2017-01-15T12:29:52.253Z,1019.31
2017-01-15T12:31:14.753Z,1019.3
2017-01-15T12:32:36.962Z,1019.36
2017-01-15T12:33:59.476Z,1019.32
2017-01-15T12:35:22.018Z,1019.38
2017-01-15T12:36:44.092Z,1019.35
2017-01-15T12:38:07.012Z,1019.37
2017-01-15T12:39:29.604Z,1019.45
2017-01-15T12:40:52.094Z,1019.41
2017-01-15T12:42:14.583Z,1019.41
2017-01-15T12:43:37.465Z,1019.44
2017-01-15T12:44:59.553Z,1019.45
2017-01-15T12:46:21.658Z,1019.48
2017-01-15T12:47:43.355Z,1019.43
2017-01-15T12:49:06.292Z,1019.45
2017-01-15T12:50:28.089Z,1019.45
2017-01-15T12:51:49.764Z,1019.46
2017-01-15T12:53:12.634Z,1019.47
2017-01-15T12:54:35.100Z,1019.52
2017-01-15T12:56:29.472Z,1019.52
2017-01-15T12:57:51.565Z,1019.54
2017-01-15T12:59:14.494Z,1019.57
2017-01-15T13:00:37.050Z,1019.62
2017-01-15T13:01:58.753Z,1019.57
2017-01-15T13:03:21.224Z,1019.6
2017-01-15T13:04:42.504Z,1019.63
2017-01-15T13:06:05.399Z,1019.62
2017-01-15T13:07:27.453Z,1019.66
2017-01-15T13:08:49.949Z,1019.62
2017-01-15T13:10:12.871Z,1019.63
2017-01-15T13:11:35.480Z,1019.64
2017-01-15T13:12:58.015Z,1019.63
2017-01-15T13:14:20.630Z,1019.66
2017-01-15T13:15:43.552Z,1019.71
2017-01-15T13:17:05.682Z,1019.69
2017-01-15T13:18:28.275Z,1019.73
2017-01-15T13:19:50.378Z,1019.73
2017-01-15T13:21:12.458Z,1019.74
2017-01-15T13:22:35.127Z,1019.74
2017-01-15T13:23:57.592Z,1019.75
2017-01-15T13:25:19.651Z,1019.76
2017-01-15T13:26:41.794Z,1019.72
2017-01-15T13:28:04.052Z,1019.71
2017-01-15T13:29:26.525Z,1019.78
2017-01-15T13:30:49.016Z,1019.76
2017-01-15T13:32:11.510Z,1019.72
2017-01-15T13:33:33.647Z,1019.74
2017-01-15T13:34:56.200Z,1019.73
2017-01-15T13:36:19.070Z,1019.8
2017-01-15T13:37:41.359Z,1019.77
2017-01-15T13:39:03.032Z,1019.78
2017-01-15T13:40:25.101Z,1019.8
2017-01-15T13:41:47.992Z,1019.82
2017-01-15T13:43:10.512Z,1019.84
2017-01-15T13:44:33.085Z,1019.86
2017-01-15T13:45:55.198Z,1019.86
2017-01-15T13:47:16.523Z,1019.89
2017-01-15T13:48:39.096Z,1019.85
2017-01-15T13:50:01.606Z,1019.88
2017-01-15T13:51:23.709Z,1019.88
2017-01-15T13:52:46.249Z,1019.88
2017-01-15T13:54:08.736Z,1019.89
2017-01-15T13:55:30.811Z,1019.89
2017-01-15T13:56:53.730Z,1019.87
2017-01-15T13:58:16.800Z,1019.97
2017-01-15T13:59:39.745Z,1019.9
2017-01-15T14:01:01.950Z,1019.93
2017-01-15T14:02:24.036Z,1019.95
2017-01-15T14:03:45.967Z,1019.98
2017-01-15T14:05:08.460Z,1020.02
2017-01-15T14:06:30.246Z,1020
2017-01-15T14:07:52.738Z,1020.05
2017-01-15T14:09:15.776Z,1020.01
2017-01-15T14:10:38.418Z,1019.98
2017-01-15T14:12:00.524Z,1020.06
2017-01-15T14:13:23.018Z,1020.02
2017-01-15T14:14:45.236Z,1020.11
2017-01-15T14:16:07.449Z,1020.12
2017-01-15T14:17:30.373Z,1020.11
2017-01-15T14:18:53.284Z,1020.09
2017-01-15T14:20:15.382Z,1020.12
2017-01-15T14:21:37.965Z,1020.15
2017-01-15T14:23:00.488Z,1020.13
2017-01-15T14:24:22.648Z,1020.1
2017-01-15T14:25:45.725Z,1020.13
2017-01-15T14:27:08.686Z,1020.15
2017-01-15T14:28:31.341Z,1020.13
2017-01-15T14:29:53.928Z,1020.14
2017-01-15T14:31:16.548Z,1020.17
2017-01-15T14:32:39.191Z,1020.19
2017-01-15T14:34:01.736Z,1020.17
2017-01-15T14:35:24.762Z,1020.22
2017-01-15T14:36:47.679Z,1020.24
2017-01-15T14:38:10.305Z,1020.2
2017-01-15T14:39:33.183Z,1020.23
2017-01-15T14:40:55.004Z,1020.22
2017-01-15T14:42:17.688Z,1020.23
2017-01-15T14:43:40.610Z,1020.25
2017-01-15T14:45:03.157Z,1020.24
2017-01-15T14:46:26.120Z,1020.26
2017-01-15T14:47:48.256Z,1020.25
2017-01-15T14:49:10.377Z,1020.26
2017-01-15T14:50:33.313Z,1020.25
2017-01-15T14:51:56.230Z,1020.27
2017-01-15T14:53:18.787Z,1020.33
2017-01-15T14:54:41.829Z,1020.34
2017-01-15T14:56:04.360Z,1020.32
2017-01-15T14:57:27.318Z,1020.36
2017-01-15T14:58:49.856Z,1020.43
2017-01-15T15:00:12.943Z,1020.43
2017-01-15T15:01:35.482Z,1020.47
2017-01-15T15:02:58.033Z,1020.45
2017-01-15T15:04:20.944Z,1020.45
2017-01-15T15:05:43.057Z,1020.47
2017-01-15T15:07:05.603Z,1020.47
2017-01-15T15:08:28.638Z,1020.46
2017-01-15T15:09:51.546Z,1020.45
2017-01-15T15:11:14.206Z,1020.46
2017-01-15T15:12:36.736Z,1020.46
2017-01-15T15:13:59.676Z,1020.45
2017-01-15T15:15:21.375Z,1020.46
2017-01-15T15:16:43.497Z,1020.48
2017-01-15T15:18:06.072Z,1020.48
2017-01-15T15:19:28.191Z,1020.45
2017-01-15T15:20:50.715Z,1020.46
2017-01-15T15:22:12.780Z,1020.45
2017-01-15T15:23:35.325Z,1020.51
2017-01-15T15:24:57.424Z,1020.47
2017-01-15T15:26:20.412Z,1020.49
2017-01-15T15:27:42.199Z,1020.51
2017-01-15T15:29:04.312Z,1020.51
2017-01-15T15:30:27.191Z,1020.5
2017-01-15T15:31:49.324Z,1020.56
2017-01-15T15:33:12.196Z,1020.57
2017-01-15T15:34:34.276Z,1020.61
2017-01-15T15:35:57.167Z,1020.64
2017-01-15T15:37:19.270Z,1020.62
2017-01-15T15:38:40.966Z,1020.66
2017-01-15T15:40:02.654Z,1020.69
2017-01-15T15:41:25.155Z,1020.67
2017-01-15T15:42:48.114Z,1020.72
2017-01-15T15:44:10.305Z,1020.73
2017-01-15T15:45:32.040Z,1020.77
2017-01-15T15:46:55.056Z,1020.76
2017-01-15T15:48:18.103Z,1020.76
2017-01-15T15:49:40.992Z,1020.77
2017-01-15T15:51:03.485Z,1020.75
2017-01-15T15:52:26.018Z,1020.8
2017-01-15T15:53:48.608Z,1020.78
2017-01-15T15:55:11.517Z,1020.82
2017-01-15T15:56:34.224Z,1020.77
2017-01-15T15:57:56.744Z,1020.82
2017-01-15T15:59:19.245Z,1020.84
2017-01-15T16:00:41.973Z,1020.83
2017-01-15T16:02:04.875Z,1020.87
2017-01-15T16:03:27.904Z,1020.87
2017-01-15T16:04:50.898Z,1020.88
2017-01-15T16:06:13.429Z,1020.89
2017-01-15T16:07:35.615Z,1020.88
2017-01-15T16:08:58.161Z,1020.9
2017-01-15T16:10:20.261Z,1020.95
2017-01-15T16:11:42.776Z,1020.98
2017-01-15T16:13:05.737Z,1020.97
2017-01-15T16:14:28.288Z,1020.97
2017-01-15T16:15:50.792Z,1021.01
2017-01-15T16:17:13.317Z,1021.02
2017-01-15T16:18:35.883Z,1021.05
2017-01-15T16:19:58.393Z,1021.06
2017-01-15T16:21:20.894Z,1021.11
2017-01-15T16:22:43.004Z,1021.13
2017-01-15T16:24:05.515Z,1021.15
2017-01-15T16:25:28.036Z,1021.2
2017-01-15T16:26:50.556Z,1021.21
2017-01-15T16:28:13.549Z,1021.2
2017-01-15T16:29:36.187Z,1021.24
2017-01-15T16:30:58.439Z,1021.28
2017-01-15T16:32:21.425Z,1021.26
2017-01-15T16:33:43.966Z,1021.27
2017-01-15T16:35:06.620Z,1021.26
2017-01-15T16:36:28.738Z,1021.28
2017-01-15T16:37:51.289Z,1021.33
2017-01-15T16:39:14.278Z,1021.31